aviador You're here:

KQD3 Decoded Metar

in
Report Time2017-09-20 19:55:00
UTC Time2017-09-20 20:13:28
Flight Rules vfr VFR
WindVRB at 03 kt
Visibility9000 m
Phenomena:Haze
Clouds:N/A
Expected CloudBase > 3,200 ft AGL from Temp-Dew spread
CeilingNone
Temp33°C
Dew Point25°C (63% RH)
Heat Index40.6°C
QNH1010 hPa
Raw Report
METAR KQD3 201955Z VRB03KT 9000 HZ CLR 33/25 A2982 RMK SLP063 WND DATA
ESTMD T03280248=

Extra information for KQD3:More info

Social comments